sensor_id;sensor_type;location;lat;lon;timestamp;temperature;humidity
80274;DHT22;69576;51.902;-8.462;2023-05-16T00:01:38;14.00;64.30
80274;DHT22;69576;51.902;-8.462;2023-05-16T00:04:04;14.00;63.80
80274;DHT22;69576;51.902;-8.462;2023-05-16T00:06:32;14.00;63.70
80274;DHT22;69576;51.902;-8.462;2023-05-16T00:09:00;14.00;64.00
80274;DHT22;69576;51.902;-8.462;2023-05-16T00:11:28;14.00;63.70
80274;DHT22;69576;51.902;-8.462;2023-05-16T00:13:53;14.00;63.90
80274;DHT22;69576;51.902;-8.462;2023-05-16T00:16:19;14.00;63.70
80274;DHT22;69576;51.902;-8.462;2023-05-16T00:18:52;14.00;64.30
80274;DHT22;69576;51.902;-8.462;2023-05-16T00:21:18;14.00;63.90
80274;DHT22;69576;51.902;-8.462;2023-05-16T00:23:44;14.00;63.90
80274;DHT22;69576;51.902;-8.462;2023-05-16T00:26:09;13.90;63.80
80274;DHT22;69576;51.902;-8.462;2023-05-16T00:28:38;13.90;63.90
80274;DHT22;69576;51.902;-8.462;2023-05-16T00:31:06;13.90;63.70
80274;DHT22;69576;51.902;-8.462;2023-05-16T00:33:33;13.90;63.70
80274;DHT22;69576;51.902;-8.462;2023-05-16T00:35:58;13.90;64.50
80274;DHT22;69576;51.902;-8.462;2023-05-16T00:38:29;13.90;64.20
80274;DHT22;69576;51.902;-8.462;2023-05-16T00:40:54;13.90;64.00
80274;DHT22;69576;51.902;-8.462;2023-05-16T00:43:22;13.90;64.40
80274;DHT22;69576;51.902;-8.462;2023-05-16T00:45:48;13.90;64.20
80274;DHT22;69576;51.902;-8.462;2023-05-16T00:48:14;13.90;64.30
80274;DHT22;69576;51.902;-8.462;2023-05-16T00:50:43;13.90;64.20
80274;DHT22;69576;51.902;-8.462;2023-05-16T00:53:09;13.90;64.20
80274;DHT22;69576;51.902;-8.462;2023-05-16T00:55:36;13.80;63.90
80274;DHT22;69576;51.902;-8.462;2023-05-16T00:58:04;13.80;63.90
80274;DHT22;69576;51.902;-8.462;2023-05-16T01:00:31;13.80;63.90
80274;DHT22;69576;51.902;-8.462;2023-05-16T01:02:56;13.80;64.10
80274;DHT22;69576;51.902;-8.462;2023-05-16T01:05:25;13.70;64.20
80274;DHT22;69576;51.902;-8.462;2023-05-16T01:07:52;13.70;64.50
80274;DHT22;69576;51.902;-8.462;2023-05-16T01:10:20;13.70;64.10
80274;DHT22;69576;51.902;-8.462;2023-05-16T01:13:08;13.70;64.20
80274;DHT22;69576;51.902;-8.462;2023-05-16T01:15:46;13.70;64.20
80274;DHT22;69576;51.902;-8.462;2023-05-16T01:18:28;13.70;64.00
80274;DHT22;69576;51.902;-8.462;2023-05-16T01:20:58;13.70;64.30
80274;DHT22;69576;51.902;-8.462;2023-05-16T01:26:26;13.70;64.20
80274;DHT22;69576;51.902;-8.462;2023-05-16T01:28:55;13.60;64.10
80274;DHT22;69576;51.902;-8.462;2023-05-16T01:31:21;13.60;64.20
80274;DHT22;69576;51.902;-8.462;2023-05-16T01:33:48;13.60;64.10
80274;DHT22;69576;51.902;-8.462;2023-05-16T01:42:14;13.60;64.30
80274;DHT22;69576;51.902;-8.462;2023-05-16T01:44:47;13.60;64.50
80274;DHT22;69576;51.902;-8.462;2023-05-16T01:47:16;13.60;64.50
80274;DHT22;69576;51.902;-8.462;2023-05-16T01:49:56;13.60;64.50
80274;DHT22;69576;51.902;-8.462;2023-05-16T01:52:33;13.50;64.50
80274;DHT22;69576;51.902;-8.462;2023-05-16T01:55:02;13.50;64.80
80274;DHT22;69576;51.902;-8.462;2023-05-16T01:57:31;13.50;64.50
80274;DHT22;69576;51.902;-8.462;2023-05-16T01:59:57;13.50;64.60
80274;DHT22;69576;51.902;-8.462;2023-05-16T02:02:23;13.50;64.80
80274;DHT22;69576;51.902;-8.462;2023-05-16T02:04:51;13.50;65.00
80274;DHT22;69576;51.902;-8.462;2023-05-16T02:07:17;13.50;64.70
80274;DHT22;69576;51.902;-8.462;2023-05-16T02:09:43;13.50;65.50
80274;DHT22;69576;51.902;-8.462;2023-05-16T02:12:09;13.50;65.20
80274;DHT22;69576;51.902;-8.462;2023-05-16T02:14:35;13.50;64.80
80274;DHT22;69576;51.902;-8.462;2023-05-16T02:17:02;13.50;64.80
80274;DHT22;69576;51.902;-8.462;2023-05-16T02:19:28;13.50;65.10
80274;DHT22;69576;51.902;-8.462;2023-05-16T02:21:56;13.50;64.70
80274;DHT22;69576;51.902;-8.462;2023-05-16T02:24:22;13.50;64.60
80274;DHT22;69576;51.902;-8.462;2023-05-16T02:26:48;13.50;64.60
80274;DHT22;69576;51.902;-8.462;2023-05-16T02:29:16;13.40;64.70
80274;DHT22;69576;51.902;-8.462;2023-05-16T02:31:44;13.40;64.50
80274;DHT22;69576;51.902;-8.462;2023-05-16T02:34:10;13.40;64.60
80274;DHT22;69576;51.902;-8.462;2023-05-16T02:36:35;13.30;64.70
80274;DHT22;69576;51.902;-8.462;2023-05-16T02:39:06;13.30;64.70
80274;DHT22;69576;51.902;-8.462;2023-05-16T02:41:34;13.30;64.70
80274;DHT22;69576;51.902;-8.462;2023-05-16T02:44:00;13.30;64.70
80274;DHT22;69576;51.902;-8.462;2023-05-16T02:46:30;13.30;64.80
80274;DHT22;69576;51.902;-8.462;2023-05-16T02:48:56;13.30;64.80
80274;DHT22;69576;51.902;-8.462;2023-05-16T02:51:26;13.30;64.70
80274;DHT22;69576;51.902;-8.462;2023-05-16T02:53:52;13.30;64.90
80274;DHT22;69576;51.902;-8.462;2023-05-16T02:56:21;13.30;64.80
80274;DHT22;69576;51.902;-8.462;2023-05-16T02:58:49;13.30;64.80
80274;DHT22;69576;51.902;-8.462;2023-05-16T03:01:15;13.30;64.80
80274;DHT22;69576;51.902;-8.462;2023-05-16T03:03:42;13.30;64.90
80274;DHT22;69576;51.902;-8.462;2023-05-16T03:06:07;13.30;65.00
80274;DHT22;69576;51.902;-8.462;2023-05-16T03:08:36;13.30;65.10
80274;DHT22;69576;51.902;-8.462;2023-05-16T03:11:02;13.30;65.20
80274;DHT22;69576;51.902;-8.462;2023-05-16T03:13:27;13.20;65.10
80274;DHT22;69576;51.902;-8.462;2023-05-16T03:15:55;13.30;65.20
80274;DHT22;69576;51.902;-8.462;2023-05-16T03:18:21;13.20;65.20
80274;DHT22;69576;51.902;-8.462;2023-05-16T03:20:49;13.20;65.40
80274;DHT22;69576;51.902;-8.462;2023-05-16T03:23:18;13.20;65.90
80274;DHT22;69576;51.902;-8.462;2023-05-16T03:25:44;13.20;65.10
80274;DHT22;69576;51.902;-8.462;2023-05-16T03:28:13;13.10;65.10
80274;DHT22;69576;51.902;-8.462;2023-05-16T03:30:41;13.10;65.20
80274;DHT22;69576;51.902;-8.462;2023-05-16T03:33:11;13.10;65.10
80274;DHT22;69576;51.902;-8.462;2023-05-16T03:35:40;13.10;65.10
80274;DHT22;69576;51.902;-8.462;2023-05-16T03:38:06;13.10;65.10
80274;DHT22;69576;51.902;-8.462;2023-05-16T03:40:32;13.10;65.20
80274;DHT22;69576;51.902;-8.462;2023-05-16T03:42:58;13.10;65.20
80274;DHT22;69576;51.902;-8.462;2023-05-16T03:45:24;13.10;65.10
80274;DHT22;69576;51.902;-8.462;2023-05-16T03:47:54;13.10;65.20
80274;DHT22;69576;51.902;-8.462;2023-05-16T03:50:20;13.10;65.30
80274;DHT22;69576;51.902;-8.462;2023-05-16T03:52:48;13.00;65.00
80274;DHT22;69576;51.902;-8.462;2023-05-16T03:55:14;13.00;65.30
80274;DHT22;69576;51.902;-8.462;2023-05-16T03:57:42;13.00;65.20
80274;DHT22;69576;51.902;-8.462;2023-05-16T04:00:09;13.00;65.40
80274;DHT22;69576;51.902;-8.462;2023-05-16T04:02:37;13.00;65.60
80274;DHT22;69576;51.902;-8.462;2023-05-16T04:05:08;13.00;65.50
80274;DHT22;69576;51.902;-8.462;2023-05-16T04:07:35;13.00;65.40
80274;DHT22;69576;51.902;-8.462;2023-05-16T04:10:02;13.00;65.40
80274;DHT22;69576;51.902;-8.462;2023-05-16T04:12:28;12.90;65.50
80274;DHT22;69576;51.902;-8.462;2023-05-16T04:14:56;12.90;65.60
80274;DHT22;69576;51.902;-8.462;2023-05-16T04:17:21;12.90;65.50
80274;DHT22;69576;51.902;-8.462;2023-05-16T04:19:47;12.90;65.50
80274;DHT22;69576;51.902;-8.462;2023-05-16T04:22:15;12.90;65.70
80274;DHT22;69576;51.902;-8.462;2023-05-16T04:24:41;12.90;65.50
80274;DHT22;69576;51.902;-8.462;2023-05-16T04:27:07;12.90;65.60
80274;DHT22;69576;51.902;-8.462;2023-05-16T04:29:38;12.90;65.50
80274;DHT22;69576;51.902;-8.462;2023-05-16T04:32:04;12.90;65.60
80274;DHT22;69576;51.902;-8.462;2023-05-16T04:34:34;12.90;65.70
80274;DHT22;69576;51.902;-8.462;2023-05-16T04:37:03;12.90;65.80
80274;DHT22;69576;51.902;-8.462;2023-05-16T04:39:30;12.90;65.70
80274;DHT22;69576;51.902;-8.462;2023-05-16T04:41:58;12.90;65.70
80274;DHT22;69576;51.902;-8.462;2023-05-16T04:44:27;12.90;65.60
80274;DHT22;69576;51.902;-8.462;2023-05-16T04:46:53;12.90;65.50
80274;DHT22;69576;51.902;-8.462;2023-05-16T04:49:22;12.90;65.70
80274;DHT22;69576;51.902;-8.462;2023-05-16T04:51:48;12.90;65.70
80274;DHT22;69576;51.902;-8.462;2023-05-16T04:54:14;12.80;65.60
80274;DHT22;69576;51.902;-8.462;2023-05-16T04:56:42;12.80;65.80
80274;DHT22;69576;51.902;-8.462;2023-05-16T04:59:10;12.80;65.80
80274;DHT22;69576;51.902;-8.462;2023-05-16T05:01:36;12.80;66.00
80274;DHT22;69576;51.902;-8.462;2023-05-16T05:04:04;12.80;65.80
80274;DHT22;69576;51.902;-8.462;2023-05-16T05:06:32;12.80;65.80
80274;DHT22;69576;51.902;-8.462;2023-05-16T05:09:00;12.80;65.80
80274;DHT22;69576;51.902;-8.462;2023-05-16T05:11:30;12.80;65.80
80274;DHT22;69576;51.902;-8.462;2023-05-16T05:13:56;12.80;65.80
80274;DHT22;69576;51.902;-8.462;2023-05-16T05:16:21;12.80;65.80
80274;DHT22;69576;51.902;-8.462;2023-05-16T05:18:47;12.80;65.90
80274;DHT22;69576;51.902;-8.462;2023-05-16T05:21:13;12.80;66.00
80274;DHT22;69576;51.902;-8.462;2023-05-16T05:23:39;12.80;66.00
80274;DHT22;69576;51.902;-8.462;2023-05-16T05:26:04;12.80;66.00
80274;DHT22;69576;51.902;-8.462;2023-05-16T05:28:32;12.80;65.90
80274;DHT22;69576;51.902;-8.462;2023-05-16T05:30:58;12.80;65.80
80274;DHT22;69576;51.902;-8.462;2023-05-16T05:33:27;12.80;65.70
80274;DHT22;69576;51.902;-8.462;2023-05-16T05:35:53;12.80;65.80
80274;DHT22;69576;51.902;-8.462;2023-05-16T05:38:20;12.80;65.80
80274;DHT22;69576;51.902;-8.462;2023-05-16T05:40:46;12.80;65.80
80274;DHT22;69576;51.902;-8.462;2023-05-16T05:43:12;12.80;65.80
80274;DHT22;69576;51.902;-8.462;2023-05-16T05:45:40;12.80;65.80
80274;DHT22;69576;51.902;-8.462;2023-05-16T05:48:09;12.80;65.80
80274;DHT22;69576;51.902;-8.462;2023-05-16T05:50:35;12.80;65.70
80274;DHT22;69576;51.902;-8.462;2023-05-16T05:53:02;12.80;65.60
80274;DHT22;69576;51.902;-8.462;2023-05-16T05:55:30;12.80;65.70
80274;DHT22;69576;51.902;-8.462;2023-05-16T05:57:56;12.80;65.70
80274;DHT22;69576;51.902;-8.462;2023-05-16T06:00:22;12.90;65.80
80274;DHT22;69576;51.902;-8.462;2023-05-16T06:02:47;12.90;65.80
80274;DHT22;69576;51.902;-8.462;2023-05-16T06:05:16;12.90;65.80
80274;DHT22;69576;51.902;-8.462;2023-05-16T06:07:41;12.90;65.50
80274;DHT22;69576;51.902;-8.462;2023-05-16T06:10:09;12.90;65.80
80274;DHT22;69576;51.902;-8.462;2023-05-16T06:12:35;12.90;65.70
80274;DHT22;69576;51.902;-8.462;2023-05-16T06:15:01;12.90;65.80
80274;DHT22;69576;51.902;-8.462;2023-05-16T06:17:27;13.00;65.70
80274;DHT22;69576;51.902;-8.462;2023-05-16T06:19:53;13.00;66.00
80274;DHT22;69576;51.902;-8.462;2023-05-16T06:22:21;13.00;65.80
80274;DHT22;69576;51.902;-8.462;2023-05-16T06:24:49;13.10;66.20
80274;DHT22;69576;51.902;-8.462;2023-05-16T06:27:15;13.10;65.20
80274;DHT22;69576;51.902;-8.462;2023-05-16T06:29:43;13.10;64.80
80274;DHT22;69576;51.902;-8.462;2023-05-16T06:32:11;13.10;65.00
80274;DHT22;69576;51.902;-8.462;2023-05-16T06:34:37;13.10;64.40
80274;DHT22;69576;51.902;-8.462;2023-05-16T06:37:07;13.10;64.10
80274;DHT22;69576;51.902;-8.462;2023-05-16T06:39:33;13.20;64.00
80274;DHT22;69576;51.902;-8.462;2023-05-16T06:41:59;13.20;64.10
80274;DHT22;69576;51.902;-8.462;2023-05-16T06:44:25;13.20;64.00
80274;DHT22;69576;51.902;-8.462;2023-05-16T06:46:54;13.30;64.20
80274;DHT22;69576;51.902;-8.462;2023-05-16T06:49:20;13.30;64.20
80274;DHT22;69576;51.902;-8.462;2023-05-16T06:51:46;13.30;63.90
80274;DHT22;69576;51.902;-8.462;2023-05-16T06:54:11;13.30;63.50
80274;DHT22;69576;51.902;-8.462;2023-05-16T06:56:37;13.30;63.30
80274;DHT22;69576;51.902;-8.462;2023-05-16T06:59:03;13.30;63.40
80274;DHT22;69576;51.902;-8.462;2023-05-16T07:01:31;13.40;63.70
80274;DHT22;69576;51.902;-8.462;2023-05-16T07:03:57;13.50;63.70
80274;DHT22;69576;51.902;-8.462;2023-05-16T07:06:22;13.60;63.40
80274;DHT22;69576;51.902;-8.462;2023-05-16T07:08:48;13.60;63.40
80274;DHT22;69576;51.902;-8.462;2023-05-16T07:11:16;13.60;63.80
80274;DHT22;69576;51.902;-8.462;2023-05-16T07:13:42;13.70;63.40
80274;DHT22;69576;51.902;-8.462;2023-05-16T07:16:07;13.70;63.30
80274;DHT22;69576;51.902;-8.462;2023-05-16T07:18:36;13.70;63.50
80274;DHT22;69576;51.902;-8.462;2023-05-16T07:21:04;13.80;63.30
80274;DHT22;69576;51.902;-8.462;2023-05-16T07:23:30;13.90;63.20
80274;DHT22;69576;51.902;-8.462;2023-05-16T07:25:56;13.90;63.00
80274;DHT22;69576;51.902;-8.462;2023-05-16T07:28:27;13.90;63.00
80274;DHT22;69576;51.902;-8.462;2023-05-16T07:30:53;13.90;63.10
80274;DHT22;69576;51.902;-8.462;2023-05-16T07:33:21;14.00;63.30
80274;DHT22;69576;51.902;-8.462;2023-05-16T07:35:49;14.00;63.20
80274;DHT22;69576;51.902;-8.462;2023-05-16T07:38:18;14.00;63.80
80274;DHT22;69576;51.902;-8.462;2023-05-16T07:40:43;14.10;63.30
80274;DHT22;69576;51.902;-8.462;2023-05-16T07:43:09;14.10;63.00
80274;DHT22;69576;51.902;-8.462;2023-05-16T07:45:37;14.10;63.70
80274;DHT22;69576;51.902;-8.462;2023-05-16T07:48:03;14.20;63.70
80274;DHT22;69576;51.902;-8.462;2023-05-16T07:50:29;14.20;63.30
80274;DHT22;69576;51.902;-8.462;2023-05-16T07:52:55;14.30;63.50
80274;DHT22;69576;51.902;-8.462;2023-05-16T07:55:21;14.30;63.70
80274;DHT22;69576;51.902;-8.462;2023-05-16T07:57:48;14.30;63.30
80274;DHT22;69576;51.902;-8.462;2023-05-16T08:00:15;14.40;63.20
80274;DHT22;69576;51.902;-8.462;2023-05-16T08:02:41;14.50;63.10
80274;DHT22;69576;51.902;-8.462;2023-05-16T08:05:07;14.60;63.50
80274;DHT22;69576;51.902;-8.462;2023-05-16T08:07:33;14.70;63.00
80274;DHT22;69576;51.902;-8.462;2023-05-16T08:09:59;14.90;63.00
80274;DHT22;69576;51.902;-8.462;2023-05-16T08:12:25;15.00;63.10
80274;DHT22;69576;51.902;-8.462;2023-05-16T08:14:55;15.20;62.90
80274;DHT22;69576;51.902;-8.462;2023-05-16T08:17:24;15.40;63.00
80274;DHT22;69576;51.902;-8.462;2023-05-16T08:19:50;15.60;62.90
80274;DHT22;69576;51.902;-8.462;2023-05-16T08:22:18;15.80;63.00
80274;DHT22;69576;51.902;-8.462;2023-05-16T08:24:44;16.00;63.00
80274;DHT22;69576;51.902;-8.462;2023-05-16T08:27:14;16.10;62.80
80274;DHT22;69576;51.902;-8.462;2023-05-16T08:29:40;16.30;62.20
80274;DHT22;69576;51.902;-8.462;2023-05-16T08:32:08;16.50;62.00
80274;DHT22;69576;51.902;-8.462;2023-05-16T08:34:35;16.70;61.80
80274;DHT22;69576;51.902;-8.462;2023-05-16T08:37:01;16.90;61.50
80274;DHT22;69576;51.902;-8.462;2023-05-16T08:39:27;17.00;61.60
80274;DHT22;69576;51.902;-8.462;2023-05-16T08:41:55;17.20;61.20
80274;DHT22;69576;51.902;-8.462;2023-05-16T08:44:21;17.50;60.90
80274;DHT22;69576;51.902;-8.462;2023-05-16T08:46:52;17.70;60.40
80274;DHT22;69576;51.902;-8.462;2023-05-16T08:49:22;17.90;60.10
80274;DHT22;69576;51.902;-8.462;2023-05-16T08:51:58;18.00;59.80
80274;DHT22;69576;51.902;-8.462;2023-05-16T08:54:27;18.10;59.20
80274;DHT22;69576;51.902;-8.462;2023-05-16T08:56:57;18.30;59.20
80274;DHT22;69576;51.902;-8.462;2023-05-16T08:59:23;18.50;58.70
80274;DHT22;69576;51.902;-8.462;2023-05-16T09:01:54;18.70;58.30
80274;DHT22;69576;51.902;-8.462;2023-05-16T09:04:20;18.90;57.80
80274;DHT22;69576;51.902;-8.462;2023-05-16T09:06:48;19.20;57.60
80274;DHT22;69576;51.902;-8.462;2023-05-16T09:09:14;19.60;57.10
80274;DHT22;69576;51.902;-8.462;2023-05-16T09:11:41;20.00;56.50
80274;DHT22;69576;51.902;-8.462;2023-05-16T09:14:07;20.50;56.00
80274;DHT22;69576;51.902;-8.462;2023-05-16T09:16:32;20.80;55.50
80274;DHT22;69576;51.902;-8.462;2023-05-16T09:18:59;21.10;54.90
80274;DHT22;69576;51.902;-8.462;2023-05-16T09:21:30;21.30;55.00
80274;DHT22;69576;51.902;-8.462;2023-05-16T09:24:05;21.50;54.50
80274;DHT22;69576;51.902;-8.462;2023-05-16T09:26:36;21.70;54.10
80274;DHT22;69576;51.902;-8.462;2023-05-16T09:29:11;21.90;54.10
80274;DHT22;69576;51.902;-8.462;2023-05-16T09:31:37;22.10;53.60
80274;DHT22;69576;51.902;-8.462;2023-05-16T09:34:06;22.20;53.60
80274;DHT22;69576;51.902;-8.462;2023-05-16T09:36:33;22.20;53.40
80274;DHT22;69576;51.902;-8.462;2023-05-16T09:39:00;22.10;53.10
80274;DHT22;69576;51.902;-8.462;2023-05-16T09:41:26;21.90;53.20
80274;DHT22;69576;51.902;-8.462;2023-05-16T09:43:52;22.00;53.00
80274;DHT22;69576;51.902;-8.462;2023-05-16T09:46:17;21.70;52.80
80274;DHT22;69576;51.902;-8.462;2023-05-16T09:48:46;21.10;52.90
80274;DHT22;69576;51.902;-8.462;2023-05-16T09:51:14;20.60;53.30
80274;DHT22;69576;51.902;-8.462;2023-05-16T09:53:40;20.10;53.80
80274;DHT22;69576;51.902;-8.462;2023-05-16T09:56:09;20.00;54.60
80274;DHT22;69576;51.902;-8.462;2023-05-16T09:58:42;20.00;54.70
80274;DHT22;69576;51.902;-8.462;2023-05-16T10:01:09;20.00;54.70
80274;DHT22;69576;51.902;-8.462;2023-05-16T10:03:37;19.90;54.60
80274;DHT22;69576;51.902;-8.462;2023-05-16T10:06:06;19.60;54.70
80274;DHT22;69576;51.902;-8.462;2023-05-16T10:08:34;19.50;54.70
80274;DHT22;69576;51.902;-8.462;2023-05-16T10:11:05;19.60;54.80
80274;DHT22;69576;51.902;-8.462;2023-05-16T10:13:34;19.70;54.90
80274;DHT22;69576;51.902;-8.462;2023-05-16T10:16:11;19.70;55.00
80274;DHT22;69576;51.902;-8.462;2023-05-16T10:18:41;20.00;54.80
80274;DHT22;69576;51.902;-8.462;2023-05-16T10:21:10;20.30;54.70
80274;DHT22;69576;51.902;-8.462;2023-05-16T10:23:40;20.60;54.50
80274;DHT22;69576;51.902;-8.462;2023-05-16T10:26:08;20.80;54.50
80274;DHT22;69576;51.902;-8.462;2023-05-16T10:28:36;20.80;54.40
80274;DHT22;69576;51.902;-8.462;2023-05-16T10:31:03;20.90;54.60
80274;DHT22;69576;51.902;-8.462;2023-05-16T10:33:35;21.00;54.60
80274;DHT22;69576;51.902;-8.462;2023-05-16T10:36:03;21.10;54.50
80274;DHT22;69576;51.902;-8.462;2023-05-16T10:38:30;21.10;54.10
80274;DHT22;69576;51.902;-8.462;2023-05-16T10:40:57;21.10;53.90
80274;DHT22;69576;51.902;-8.462;2023-05-16T10:43:28;21.10;53.60
80274;DHT22;69576;51.902;-8.462;2023-05-16T10:45:56;21.00;53.60
80274;DHT22;69576;51.902;-8.462;2023-05-16T10:48:36;20.90;53.60
80274;DHT22;69576;51.902;-8.462;2023-05-16T10:51:34;20.70;53.50
80274;DHT22;69576;51.902;-8.462;2023-05-16T10:54:06;20.30;53.70
80274;DHT22;69576;51.902;-8.462;2023-05-16T10:56:33;20.10;54.00
80274;DHT22;69576;51.902;-8.462;2023-05-16T10:59:02;20.00;54.30
80274;DHT22;69576;51.902;-8.462;2023-05-16T11:01:33;20.00;54.60
80274;DHT22;69576;51.902;-8.462;2023-05-16T11:04:04;19.90;54.70
80274;DHT22;69576;51.902;-8.462;2023-05-16T11:06:42;19.70;54.70
80274;DHT22;69576;51.902;-8.462;2023-05-16T11:17:21;19.30;55.20
80274;DHT22;69576;51.902;-8.462;2023-05-16T11:19:56;19.10;55.30
80274;DHT22;69576;51.902;-8.462;2023-05-16T11:22:27;19.00;55.60
80274;DHT22;69576;51.902;-8.462;2023-05-16T11:24:57;18.80;55.70
80274;DHT22;69576;51.902;-8.462;2023-05-16T11:27:45;18.80;55.80
80274;DHT22;69576;51.902;-8.462;2023-05-16T11:30:15;18.70;56.10
80274;DHT22;69576;51.902;-8.462;2023-05-16T11:32:44;18.70;56.10
80274;DHT22;69576;51.902;-8.462;2023-05-16T11:35:15;18.70;56.20
80274;DHT22;69576;51.902;-8.462;2023-05-16T11:37:42;18.70;56.10
80274;DHT22;69576;51.902;-8.462;2023-05-16T11:40:10;18.70;56.20
80274;DHT22;69576;51.902;-8.462;2023-05-16T11:42:40;18.60;56.30
80274;DHT22;69576;51.902;-8.462;2023-05-16T11:45:10;18.60;56.40
80274;DHT22;69576;51.902;-8.462;2023-05-16T11:47:43;18.50;56.40
80274;DHT22;69576;51.902;-8.462;2023-05-16T11:50:21;18.40;56.60
80274;DHT22;69576;51.902;-8.462;2023-05-16T11:52:52;18.40;56.60
80274;DHT22;69576;51.902;-8.462;2023-05-16T11:55:25;18.30;56.70
80274;DHT22;69576;51.902;-8.462;2023-05-16T11:57:53;18.30;56.70
80274;DHT22;69576;51.902;-8.462;2023-05-16T12:00:20;18.30;56.80
80274;DHT22;69576;51.902;-8.462;2023-05-16T12:02:50;18.30;56.90
80274;DHT22;69576;51.902;-8.462;2023-05-16T12:05:19;18.30;56.90
80274;DHT22;69576;51.902;-8.462;2023-05-16T12:07:46;18.40;56.90
80274;DHT22;69576;51.902;-8.462;2023-05-16T12:10:15;18.40;56.90
80274;DHT22;69576;51.902;-8.462;2023-05-16T12:12:46;18.40;56.90
80274;DHT22;69576;51.902;-8.462;2023-05-16T12:15:13;18.40;57.00
80274;DHT22;69576;51.902;-8.462;2023-05-16T12:17:39;18.40;57.00
80274;DHT22;69576;51.902;-8.462;2023-05-16T12:20:07;18.40;57.00
80274;DHT22;69576;51.902;-8.462;2023-05-16T12:22:41;18.50;57.00
80274;DHT22;69576;51.902;-8.462;2023-05-16T12:25:29;18.50;57.10
80274;DHT22;69576;51.902;-8.462;2023-05-16T12:27:58;18.50;57.10
80274;DHT22;69576;51.902;-8.462;2023-05-16T12:30:27;18.40;57.10
80274;DHT22;69576;51.902;-8.462;2023-05-16T12:32:57;18.40;57.20
80274;DHT22;69576;51.902;-8.462;2023-05-16T12:35:24;18.40;57.20
80274;DHT22;69576;51.902;-8.462;2023-05-16T12:37:54;18.40;57.30
80274;DHT22;69576;51.902;-8.462;2023-05-16T12:40:20;18.30;57.30
80274;DHT22;69576;51.902;-8.462;2023-05-16T12:42:50;18.30;57.30
80274;DHT22;69576;51.902;-8.462;2023-05-16T12:45:17;18.30;57.40
80274;DHT22;69576;51.902;-8.462;2023-05-16T12:47:44;18.30;57.40
80274;DHT22;69576;51.902;-8.462;2023-05-16T12:50:16;18.30;57.40
80274;DHT22;69576;51.902;-8.462;2023-05-16T12:52:57;18.40;57.40
80274;DHT22;69576;51.902;-8.462;2023-05-16T12:55:25;18.40;57.40
80274;DHT22;69576;51.902;-8.462;2023-05-16T12:57:54;18.40;57.40
80274;DHT22;69576;51.902;-8.462;2023-05-16T13:00:23;18.40;57.40
80274;DHT22;69576;51.902;-8.462;2023-05-16T13:02:51;18.40;57.40
80274;DHT22;69576;51.902;-8.462;2023-05-16T13:05:17;18.40;57.50
80274;DHT22;69576;51.902;-8.462;2023-05-16T13:07:43;18.40;57.50
80274;DHT22;69576;51.902;-8.462;2023-05-16T13:10:12;18.40;57.50
80274;DHT22;69576;51.902;-8.462;2023-05-16T13:12:39;18.40;57.50
80274;DHT22;69576;51.902;-8.462;2023-05-16T13:15:06;18.40;57.60
80274;DHT22;69576;51.902;-8.462;2023-05-16T13:17:33;18.30;57.70
80274;DHT22;69576;51.902;-8.462;2023-05-16T13:20:04;18.30;57.70
80274;DHT22;69576;51.902;-8.462;2023-05-16T13:22:39;18.30;57.80
80274;DHT22;69576;51.902;-8.462;2023-05-16T13:25:06;18.30;57.80
80274;DHT22;69576;51.902;-8.462;2023-05-16T13:27:35;18.30;57.80
80274;DHT22;69576;51.902;-8.462;2023-05-16T13:30:01;18.30;57.80
80274;DHT22;69576;51.902;-8.462;2023-05-16T13:32:29;18.20;57.80
80274;DHT22;69576;51.902;-8.462;2023-05-16T13:35:01;18.30;57.90
80274;DHT22;69576;51.902;-8.462;2023-05-16T13:37:28;18.30;57.90
80274;DHT22;69576;51.902;-8.462;2023-05-16T13:39:56;18.30;58.00
80274;DHT22;69576;51.902;-8.462;2023-05-16T13:42:27;18.30;57.90
80274;DHT22;69576;51.902;-8.462;2023-05-16T13:44:52;18.30;57.90
80274;DHT22;69576;51.902;-8.462;2023-05-16T13:47:18;18.30;58.00
80274;DHT22;69576;51.902;-8.462;2023-05-16T13:49:49;18.30;57.90
80274;DHT22;69576;51.902;-8.462;2023-05-16T13:52:15;18.30;58.00
80274;DHT22;69576;51.902;-8.462;2023-05-16T13:54:43;18.30;58.00
80274;DHT22;69576;51.902;-8.462;2023-05-16T13:57:12;18.30;58.00
80274;DHT22;69576;51.902;-8.462;2023-05-16T13:59:42;18.30;58.00
80274;DHT22;69576;51.902;-8.462;2023-05-16T14:02:13;18.30;58.00
80274;DHT22;69576;51.902;-8.462;2023-05-16T14:04:42;18.30;58.00
80274;DHT22;69576;51.902;-8.462;2023-05-16T14:07:10;18.30;58.00
80274;DHT22;69576;51.902;-8.462;2023-05-16T14:09:36;18.30;58.10
80274;DHT22;69576;51.902;-8.462;2023-05-16T14:12:05;18.30;58.00
80274;DHT22;69576;51.902;-8.462;2023-05-16T14:14:32;18.30;57.90
80274;DHT22;69576;51.902;-8.462;2023-05-16T14:17:01;18.30;57.70
80274;DHT22;69576;51.902;-8.462;2023-05-16T14:19:28;18.20;57.20
80274;DHT22;69576;51.902;-8.462;2023-05-16T14:21:54;18.20;57.00
80274;DHT22;69576;51.902;-8.462;2023-05-16T14:24:21;18.20;56.50
80274;DHT22;69576;51.902;-8.462;2023-05-16T14:26:47;18.20;56.40
80274;DHT22;69576;51.902;-8.462;2023-05-16T14:29:13;18.10;56.20
80274;DHT22;69576;51.902;-8.462;2023-05-16T14:31:41;18.10;56.10
80274;DHT22;69576;51.902;-8.462;2023-05-16T14:34:09;18.10;56.20
80274;DHT22;69576;51.902;-8.462;2023-05-16T14:36:35;18.00;56.10
80274;DHT22;69576;51.902;-8.462;2023-05-16T14:39:01;18.00;55.70
80274;DHT22;69576;51.902;-8.462;2023-05-16T14:41:27;18.00;55.60
80274;DHT22;69576;51.902;-8.462;2023-05-16T14:43:54;18.00;56.10
80274;DHT22;69576;51.902;-8.462;2023-05-16T14:46:22;18.00;56.00
80274;DHT22;69576;51.902;-8.462;2023-05-16T14:48:50;18.00;55.60
80274;DHT22;69576;51.902;-8.462;2023-05-16T14:51:18;18.00;55.40
80274;DHT22;69576;51.902;-8.462;2023-05-16T14:53:46;18.00;55.90
80274;DHT22;69576;51.902;-8.462;2023-05-16T14:56:12;18.00;55.80
80274;DHT22;69576;51.902;-8.462;2023-05-16T14:58:40;18.00;55.90
80274;DHT22;69576;51.902;-8.462;2023-05-16T15:01:06;18.00;55.90
80274;DHT22;69576;51.902;-8.462;2023-05-16T15:03:31;18.00;55.80
80274;DHT22;69576;51.902;-8.462;2023-05-16T15:05:57;17.90;55.70
80274;DHT22;69576;51.902;-8.462;2023-05-16T15:08:26;18.00;55.50
80274;DHT22;69576;51.902;-8.462;2023-05-16T15:10:54;17.90;55.50
80274;DHT22;69576;51.902;-8.462;2023-05-16T15:13:20;17.90;55.70
80274;DHT22;69576;51.902;-8.462;2023-05-16T15:15:46;17.90;55.70
80274;DHT22;69576;51.902;-8.462;2023-05-16T15:18:12;17.90;56.00
80274;DHT22;69576;51.902;-8.462;2023-05-16T15:20:38;18.00;56.20
80274;DHT22;69576;51.902;-8.462;2023-05-16T15:23:04;18.00;56.40
80274;DHT22;69576;51.902;-8.462;2023-05-16T15:25:30;18.00;56.50
80274;DHT22;69576;51.902;-8.462;2023-05-16T15:27:56;18.00;56.60
80274;DHT22;69576;51.902;-8.462;2023-05-16T15:30:22;18.00;56.60
80274;DHT22;69576;51.902;-8.462;2023-05-16T15:32:47;18.00;56.60
80274;DHT22;69576;51.902;-8.462;2023-05-16T15:35:13;18.00;56.70
80274;DHT22;69576;51.902;-8.462;2023-05-16T15:37:39;18.00;56.80